sensor_id;sensor_type;location;lat;lon;timestamp;pressure;altitude;pressure_sealevel;temperature;humidity
64853;BME280;56050;55.558;-4.644;2022-12-11T00:00:45;101172.38;;;3.95;69.54
64853;BME280;56050;55.558;-4.644;2022-12-11T00:03:10;101176.91;;;3.94;69.48
64853;BME280;56050;55.558;-4.644;2022-12-11T00:05:38;101182.09;;;3.91;69.52
64853;BME280;56050;55.558;-4.644;2022-12-11T00:08:04;101185.22;;;3.93;69.53
64853;BME280;56050;55.558;-4.644;2022-12-11T00:10:29;101181.09;;;3.95;69.79
64853;BME280;56050;55.558;-4.644;2022-12-11T00:12:55;101179.66;;;3.98;69.71
64853;BME280;56050;55.558;-4.644;2022-12-11T00:15:20;101188.91;;;4.00;69.59
64853;BME280;56050;55.558;-4.644;2022-12-11T00:17:46;101187.47;;;4.03;69.70
64853;BME280;56050;55.558;-4.644;2022-12-11T00:20:11;101189.00;;;4.04;69.66
64853;BME280;56050;55.558;-4.644;2022-12-11T00:22:37;101192.13;;;4.06;69.83
64853;BME280;56050;55.558;-4.644;2022-12-11T00:25:02;101195.56;;;4.06;69.67
64853;BME280;56050;55.558;-4.644;2022-12-11T00:27:28;101192.91;;;4.06;69.84
64853;BME280;56050;55.558;-4.644;2022-12-11T00:29:54;101194.13;;;4.09;69.67
64853;BME280;56050;55.558;-4.644;2022-12-11T00:32:19;101205.25;;;4.11;69.88
64853;BME280;56050;55.558;-4.644;2022-12-11T00:34:44;101193.16;;;4.13;69.77
64853;BME280;56050;55.558;-4.644;2022-12-11T00:37:10;101192.81;;;4.15;69.73
64853;BME280;56050;55.558;-4.644;2022-12-11T00:39:36;101203.59;;;4.19;69.59
64853;BME280;56050;55.558;-4.644;2022-12-11T00:42:04;101199.06;;;4.19;69.58
64853;BME280;56050;55.558;-4.644;2022-12-11T00:44:30;101202.16;;;4.21;69.63
64853;BME280;56050;55.558;-4.644;2022-12-11T00:46:55;101199.94;;;4.23;69.52
64853;BME280;56050;55.558;-4.644;2022-12-11T00:49:21;101194.59;;;4.23;69.56
64853;BME280;56050;55.558;-4.644;2022-12-11T00:51:46;101186.94;;;4.22;69.27
64853;BME280;56050;55.558;-4.644;2022-12-11T00:54:12;101192.16;;;4.18;69.28
64853;BME280;56050;55.558;-4.644;2022-12-11T00:56:37;101189.72;;;4.13;69.48
64853;BME280;56050;55.558;-4.644;2022-12-11T00:59:03;101186.13;;;4.09;69.50
64853;BME280;56050;55.558;-4.644;2022-12-11T01:01:28;101180.34;;;4.07;69.72
64853;BME280;56050;55.558;-4.644;2022-12-11T01:03:54;101180.34;;;4.07;69.64
64853;BME280;56050;55.558;-4.644;2022-12-11T01:06:21;101186.78;;;4.06;69.74
64853;BME280;56050;55.558;-4.644;2022-12-11T01:08:48;101187.91;;;4.05;69.43
64853;BME280;56050;55.558;-4.644;2022-12-11T01:11:33;101195.56;;;4.06;69.56
64853;BME280;56050;55.558;-4.644;2022-12-11T01:13:59;101189.47;;;4.06;69.30
64853;BME280;56050;55.558;-4.644;2022-12-11T01:16:24;101188.34;;;4.07;69.54
64853;BME280;56050;55.558;-4.644;2022-12-11T01:18:49;101188.03;;;4.08;69.67
64853;BME280;56050;55.558;-4.644;2022-12-11T01:21:15;101182.81;;;4.12;69.53
64853;BME280;56050;55.558;-4.644;2022-12-11T01:23:40;101190.50;;;4.13;69.49
64853;BME280;56050;55.558;-4.644;2022-12-11T01:26:11;101190.16;;;4.15;69.59
64853;BME280;56050;55.558;-4.644;2022-12-11T01:28:38;101190.59;;;4.17;69.48
64853;BME280;56050;55.558;-4.644;2022-12-11T01:31:11;101191.38;;;4.18;69.61
64853;BME280;56050;55.558;-4.644;2022-12-11T01:33:38;101181.19;;;4.20;69.47
64853;BME280;56050;55.558;-4.644;2022-12-11T01:36:15;101184.94;;;4.19;69.53
64853;BME280;56050;55.558;-4.644;2022-12-11T01:38:41;101176.59;;;4.20;69.73
64853;BME280;56050;55.558;-4.644;2022-12-11T01:41:07;101177.72;;;4.19;69.63
64853;BME280;56050;55.558;-4.644;2022-12-11T01:43:33;101171.59;;;4.19;69.52
64853;BME280;56050;55.558;-4.644;2022-12-11T01:45:58;101177.94;;;4.14;69.60
64853;BME280;56050;55.558;-4.644;2022-12-11T01:48:29;101180.34;;;4.07;69.76
64853;BME280;56050;55.558;-4.644;2022-12-11T01:50:59;101179.78;;;4.01;69.88
64853;BME280;56050;55.558;-4.644;2022-12-11T01:53:38;101173.91;;;3.96;70.00
64853;BME280;56050;55.558;-4.644;2022-12-11T01:56:06;101178.78;;;3.94;69.98
64853;BME280;56050;55.558;-4.644;2022-12-11T01:58:36;101188.66;;;3.93;70.01
64853;BME280;56050;55.558;-4.644;2022-12-11T02:01:03;101189.31;;;3.90;69.88
64853;BME280;56050;55.558;-4.644;2022-12-11T02:03:28;101187.00;;;3.89;70.09
64853;BME280;56050;55.558;-4.644;2022-12-11T02:05:58;101188.09;;;3.88;69.94
64853;BME280;56050;55.558;-4.644;2022-12-11T02:08:24;101184.66;;;3.87;70.00
64853;BME280;56050;55.558;-4.644;2022-12-11T02:13:37;101194.88;;;3.85;69.92
64853;BME280;56050;55.558;-4.644;2022-12-11T02:16:25;101198.31;;;3.86;69.96
64853;BME280;56050;55.558;-4.644;2022-12-11T02:19:02;101195.00;;;3.89;69.89
64853;BME280;56050;55.558;-4.644;2022-12-11T02:21:42;101201.84;;;3.90;69.71
64853;BME280;56050;55.558;-4.644;2022-12-11T02:24:22;101204.22;;;3.91;69.75
64853;BME280;56050;55.558;-4.644;2022-12-11T02:29:54;101213.09;;;3.95;69.70
64853;BME280;56050;55.558;-4.644;2022-12-11T02:32:37;101208.22;;;3.97;69.71
64853;BME280;56050;55.558;-4.644;2022-12-11T02:35:47;101209.91;;;4.02;69.48
64853;BME280;56050;55.558;-4.644;2022-12-11T02:38:00;101203.91;;;4.05;69.65
64853;BME280;56050;55.558;-4.644;2022-12-11T02:40:29;101207.38;;;4.05;69.60
64853;BME280;56050;55.558;-4.644;2022-12-11T02:42:56;101202.47;;;4.07;69.52
64853;BME280;56050;55.558;-4.644;2022-12-11T02:45:25;101200.59;;;4.08;69.60
64853;BME280;56050;55.558;-4.644;2022-12-11T02:47:52;101203.69;;;4.10;69.35
64853;BME280;56050;55.558;-4.644;2022-12-11T02:50:20;101206.38;;;4.10;69.40
64853;BME280;56050;55.558;-4.644;2022-12-11T02:52:47;101204.78;;;4.09;69.17
64853;BME280;56050;55.558;-4.644;2022-12-11T02:55:15;101197.94;;;4.08;69.33
64853;BME280;56050;55.558;-4.644;2022-12-11T02:57:51;101201.69;;;4.07;69.28
64853;BME280;56050;55.558;-4.644;2022-12-11T03:00:17;101203.25;;;4.08;69.50
64853;BME280;56050;55.558;-4.644;2022-12-11T03:02:43;101193.81;;;4.10;69.25
64853;BME280;56050;55.558;-4.644;2022-12-11T03:05:10;101198.38;;;4.10;69.21
64853;BME280;56050;55.558;-4.644;2022-12-11T03:07:39;101197.25;;;4.11;69.16
64853;BME280;56050;55.558;-4.644;2022-12-11T03:10:07;101188.47;;;4.10;69.26
64853;BME280;56050;55.558;-4.644;2022-12-11T03:12:36;101186.13;;;4.09;69.05
64853;BME280;56050;55.558;-4.644;2022-12-11T03:15:07;101179.91;;;4.05;68.69
64853;BME280;56050;55.558;-4.644;2022-12-11T03:25:25;101187.97;;;3.84;69.07
64853;BME280;56050;55.558;-4.644;2022-12-11T03:27:57;101187.88;;;3.81;69.18
64853;BME280;56050;55.558;-4.644;2022-12-11T03:30:26;101179.41;;;3.79;69.36
64853;BME280;56050;55.558;-4.644;2022-12-11T03:33:06;101182.19;;;3.82;69.28
64853;BME280;56050;55.558;-4.644;2022-12-11T03:35:38;101178.09;;;3.85;69.30
64853;BME280;56050;55.558;-4.644;2022-12-11T03:38:08;101177.44;;;3.88;69.34
64853;BME280;56050;55.558;-4.644;2022-12-11T03:40:35;101179.00;;;3.89;69.13
64853;BME280;56050;55.558;-4.644;2022-12-11T03:43:03;101179.00;;;3.89;69.28
64853;BME280;56050;55.558;-4.644;2022-12-11T03:45:29;101179.00;;;3.89;69.32
64853;BME280;56050;55.558;-4.644;2022-12-11T03:47:57;101179.78;;;3.89;69.10
64853;BME280;56050;55.558;-4.644;2022-12-11T03:50:26;101177.44;;;3.88;69.12
64853;BME280;56050;55.558;-4.644;2022-12-11T03:52:54;101180.75;;;3.85;69.23
64853;BME280;56050;55.558;-4.644;2022-12-11T03:55:20;101180.31;;;3.83;69.27
64853;BME280;56050;55.558;-4.644;2022-12-11T03:57:47;101180.63;;;3.81;69.29
64853;BME280;56050;55.558;-4.644;2022-12-11T04:00:16;101174.84;;;3.79;69.31
64853;BME280;56050;55.558;-4.644;2022-12-11T04:02:42;101172.06;;;3.76;69.30
64853;BME280;56050;55.558;-4.644;2022-12-11T04:05:08;101163.50;;;3.70;69.35
64853;BME280;56050;55.558;-4.644;2022-12-11T04:07:34;101164.84;;;3.64;69.22
64853;BME280;56050;55.558;-4.644;2022-12-11T04:10:00;101168.81;;;3.58;69.63
64853;BME280;56050;55.558;-4.644;2022-12-11T04:12:25;101169.00;;;3.53;69.53
64853;BME280;56050;55.558;-4.644;2022-12-11T04:14:51;101155.44;;;3.46;69.60
64853;BME280;56050;55.558;-4.644;2022-12-11T04:17:34;101162.84;;;3.40;69.90
64853;BME280;56050;55.558;-4.644;2022-12-11T04:20:18;101165.06;;;3.38;69.87
64853;BME280;56050;55.558;-4.644;2022-12-11T04:23:04;101171.94;;;3.39;69.99
64853;BME280;56050;55.558;-4.644;2022-12-11T04:25:48;101171.31;;;3.42;69.95
64853;BME280;56050;55.558;-4.644;2022-12-11T04:28:14;101167.97;;;3.45;69.73
64853;BME280;56050;55.558;-4.644;2022-12-11T04:30:39;101167.31;;;3.48;69.81
64853;BME280;56050;55.558;-4.644;2022-12-11T04:33:05;101171.69;;;3.53;69.79
64853;BME280;56050;55.558;-4.644;2022-12-11T04:35:30;101168.03;;;3.58;69.70
64853;BME280;56050;55.558;-4.644;2022-12-11T04:37:56;101166.28;;;3.62;69.67
64853;BME280;56050;55.558;-4.644;2022-12-11T04:40:21;101167.50;;;3.64;69.47
64853;BME280;56050;55.558;-4.644;2022-12-11T04:42:47;101169.94;;;3.69;69.58
64853;BME280;56050;55.558;-4.644;2022-12-11T04:45:13;101172.28;;;3.71;69.35
64853;BME280;56050;55.558;-4.644;2022-12-11T04:47:39;101159.28;;;3.69;69.55
64853;BME280;56050;55.558;-4.644;2022-12-11T04:50:06;101167.59;;;3.68;69.45
64853;BME280;56050;55.558;-4.644;2022-12-11T04:52:33;101153.19;;;3.69;69.60
64853;BME280;56050;55.558;-4.644;2022-12-11T04:54:58;101160.06;;;3.70;69.45
64853;BME280;56050;55.558;-4.644;2022-12-11T04:57:24;101169.16;;;3.69;69.34
64853;BME280;56050;55.558;-4.644;2022-12-11T04:59:49;101161.19;;;3.69;69.48
64853;BME280;56050;55.558;-4.644;2022-12-11T05:02:15;101157.72;;;3.68;69.66
64853;BME280;56050;55.558;-4.644;2022-12-11T05:04:41;101164.94;;;3.68;69.72
64853;BME280;56050;55.558;-4.644;2022-12-11T05:07:06;101159.59;;;3.68;69.93
64853;BME280;56050;55.558;-4.644;2022-12-11T05:09:34;101163.06;;;3.68;69.66
64853;BME280;56050;55.558;-4.644;2022-12-11T05:11:59;101160.72;;;3.67;69.97
64853;BME280;56050;55.558;-4.644;2022-12-11T05:14:25;101164.94;;;3.68;69.78
64853;BME280;56050;55.558;-4.644;2022-12-11T05:16:51;101159.59;;;3.68;69.98
64853;BME280;56050;55.558;-4.644;2022-12-11T05:19:17;101167.28;;;3.69;69.91
64853;BME280;56050;55.558;-4.644;2022-12-11T05:21:42;101160.06;;;3.70;69.99
64853;BME280;56050;55.558;-4.644;2022-12-11T05:24:08;101165.84;;;3.72;70.10
64853;BME280;56050;55.558;-4.644;2022-12-11T05:26:33;101173.84;;;3.72;69.93
64853;BME280;56050;55.558;-4.644;2022-12-11T05:28:59;101176.16;;;3.73;69.93
64853;BME280;56050;55.558;-4.644;2022-12-11T05:31:26;101176.63;;;3.75;70.13
64853;BME280;56050;55.558;-4.644;2022-12-11T05:33:52;101182.06;;;3.79;70.04
64853;BME280;56050;55.558;-4.644;2022-12-11T05:36:20;101177.84;;;3.78;70.04
64853;BME280;56050;55.558;-4.644;2022-12-11T05:38:47;101173.31;;;3.78;69.89
64853;BME280;56050;55.558;-4.644;2022-12-11T05:41:15;101170.19;;;3.76;69.79
64853;BME280;56050;55.558;-4.644;2022-12-11T05:43:41;101159.88;;;3.75;69.80
64853;BME280;56050;55.558;-4.644;2022-12-11T05:46:15;101165.06;;;3.71;69.67
64853;BME280;56050;55.558;-4.644;2022-12-11T05:48:42;101154.94;;;3.65;69.88
64853;BME280;56050;55.558;-4.644;2022-12-11T05:51:09;101157.03;;;3.59;69.96
64853;BME280;56050;55.558;-4.644;2022-12-11T05:53:36;101151.13;;;3.53;70.12
64853;BME280;56050;55.558;-4.644;2022-12-11T05:56:05;101139.44;;;3.46;70.09
64853;BME280;56050;55.558;-4.644;2022-12-11T05:58:31;101136.22;;;3.40;69.99
64853;BME280;56050;55.558;-4.644;2022-12-11T06:00:57;101130.31;;;3.35;70.30
64853;BME280;56050;55.558;-4.644;2022-12-11T06:03:23;101123.63;;;3.29;70.21
64853;BME280;56050;55.558;-4.644;2022-12-11T06:05:48;101125.72;;;3.23;70.39
64853;BME280;56050;55.558;-4.644;2022-12-11T06:08:14;101135.78;;;3.18;70.36
64853;BME280;56050;55.558;-4.644;2022-12-11T06:10:49;101131.00;;;3.11;70.26
64853;BME280;56050;55.558;-4.644;2022-12-11T06:13:15;101130.56;;;3.09;70.46
64853;BME280;56050;55.558;-4.644;2022-12-11T06:15:41;101126.63;;;3.07;70.58
64853;BME280;56050;55.558;-4.644;2022-12-11T06:18:07;101131.94;;;3.07;70.55
64853;BME280;56050;55.558;-4.644;2022-12-11T06:20:33;101124.31;;;3.05;70.80
64853;BME280;56050;55.558;-4.644;2022-12-11T06:22:59;101126.19;;;3.05;70.75
64853;BME280;56050;55.558;-4.644;2022-12-11T06:25:25;101117.88;;;3.06;70.88
64853;BME280;56050;55.558;-4.644;2022-12-11T06:27:50;101118.19;;;3.05;70.86
64853;BME280;56050;55.558;-4.644;2022-12-11T06:30:16;101115.88;;;3.03;70.74
64853;BME280;56050;55.558;-4.644;2022-12-11T06:32:42;101114.31;;;3.02;70.93
64853;BME280;56050;55.558;-4.644;2022-12-11T06:35:08;101110.56;;;3.03;70.72
64853;BME280;56050;55.558;-4.644;2022-12-11T06:37:34;101118.19;;;3.05;70.93
64853;BME280;56050;55.558;-4.644;2022-12-11T06:40:00;101115.69;;;3.08;70.89
64853;BME280;56050;55.558;-4.644;2022-12-11T06:42:28;101122.56;;;3.09;70.85
64853;BME280;56050;55.558;-4.644;2022-12-11T06:44:54;101116.13;;;3.10;70.78
64853;BME280;56050;55.558;-4.644;2022-12-11T06:47:21;101122.66;;;3.13;70.88
64853;BME280;56050;55.558;-4.644;2022-12-11T06:49:47;101122.38;;;3.14;70.90
64853;BME280;56050;55.558;-4.644;2022-12-11T06:52:12;101124.38;;;3.17;71.00
64853;BME280;56050;55.558;-4.644;2022-12-11T06:54:38;101126.69;;;3.19;71.01
64853;BME280;56050;55.558;-4.644;2022-12-11T06:57:03;101133.69;;;3.23;70.88
64853;BME280;56050;55.558;-4.644;2022-12-11T06:59:29;101124.41;;;3.29;70.88
64853;BME280;56050;55.558;-4.644;2022-12-11T07:01:54;101132.19;;;3.34;70.87
64853;BME280;56050;55.558;-4.644;2022-12-11T07:04:20;101134.53;;;3.36;70.25
64853;BME280;56050;55.558;-4.644;2022-12-11T07:06:48;101132.41;;;3.29;70.22
64853;BME280;56050;55.558;-4.644;2022-12-11T07:09:14;101140.78;;;3.19;69.92
64853;BME280;56050;55.558;-4.644;2022-12-11T07:11:39;101143.38;;;3.07;70.12
64853;BME280;56050;55.558;-4.644;2022-12-11T07:14:05;101137.03;;;3.00;70.12
64853;BME280;56050;55.558;-4.644;2022-12-11T07:16:30;101138.00;;;2.95;70.40
64853;BME280;56050;55.558;-4.644;2022-12-11T07:18:56;101130.69;;;2.92;70.53
64853;BME280;56050;55.558;-4.644;2022-12-11T07:21:21;101129.09;;;2.91;70.49
64853;BME280;56050;55.558;-4.644;2022-12-11T07:23:48;101139.09;;;2.94;70.66
64853;BME280;56050;55.558;-4.644;2022-12-11T07:26:15;101134.72;;;2.98;70.53
64853;BME280;56050;55.558;-4.644;2022-12-11T07:28:41;101134.16;;;3.05;70.20
64853;BME280;56050;55.558;-4.644;2022-12-11T07:31:09;101141.19;;;3.09;70.14
64853;BME280;56050;55.558;-4.644;2022-12-11T07:33:35;101132.53;;;3.12;70.14
64853;BME280;56050;55.558;-4.644;2022-12-11T07:36:02;101137.56;;;3.14;69.92
64853;BME280;56050;55.558;-4.644;2022-12-11T07:38:28;101132.53;;;3.12;69.78
64853;BME280;56050;55.558;-4.644;2022-12-11T07:40:53;101143.06;;;3.09;69.73
64853;BME280;56050;55.558;-4.644;2022-12-11T07:43:19;101141.38;;;3.04;69.80
64853;BME280;56050;55.558;-4.644;2022-12-11T07:45:44;101140.78;;;2.98;69.63
64853;BME280;56050;55.558;-4.644;2022-12-11T07:48:10;101143.63;;;2.93;69.70
64853;BME280;56050;55.558;-4.644;2022-12-11T07:50:37;101146.50;;;2.88;69.70
64853;BME280;56050;55.558;-4.644;2022-12-11T07:53:02;101149.34;;;2.83;69.90
64853;BME280;56050;55.558;-4.644;2022-12-11T07:55:28;101149.66;;;2.82;69.86
64853;BME280;56050;55.558;-4.644;2022-12-11T07:57:53;101138.13;;;2.78;69.88
64853;BME280;56050;55.558;-4.644;2022-12-11T08:00:18;101139.22;;;2.77;69.72
64853;BME280;56050;55.558;-4.644;2022-12-11T08:02:44;101137.84;;;2.71;69.79
64853;BME280;56050;55.558;-4.644;2022-12-11T08:05:10;101136.81;;;2.63;69.91
64853;BME280;56050;55.558;-4.644;2022-12-11T08:07:36;101137.31;;;2.57;69.89
64853;BME280;56050;55.558;-4.644;2022-12-11T08:10:03;101142.81;;;2.52;70.13
64853;BME280;56050;55.558;-4.644;2022-12-11T08:12:28;101146.44;;;2.47;70.25
64853;BME280;56050;55.558;-4.644;2022-12-11T08:14:54;101147.53;;;2.46;70.20
64853;BME280;56050;55.558;-4.644;2022-12-11T08:17:19;101151.75;;;2.47;70.37
64853;BME280;56050;55.558;-4.644;2022-12-11T08:19:45;101148.00;;;2.48;70.34
64853;BME280;56050;55.558;-4.644;2022-12-11T08:22:10;101155.97;;;2.48;70.07
64853;BME280;56050;55.558;-4.644;2022-12-11T08:24:36;101149.09;;;2.47;70.00
64853;BME280;56050;55.558;-4.644;2022-12-11T08:27:01;101144.13;;;2.46;69.95
64853;BME280;56050;55.558;-4.644;2022-12-11T08:29:27;101145.19;;;2.45;69.81
64853;BME280;56050;55.558;-4.644;2022-12-11T08:31:52;101152.56;;;2.39;69.83
64853;BME280;56050;55.558;-4.644;2022-12-11T08:34:18;101158.09;;;2.34;70.10
64853;BME280;56050;55.558;-4.644;2022-12-11T08:36:43;101153.41;;;2.31;70.08
64853;BME280;56050;55.558;-4.644;2022-12-11T08:39:09;101154.81;;;2.28;70.37
64853;BME280;56050;55.558;-4.644;2022-12-11T08:41:34;101157.47;;;2.28;70.30
64853;BME280;56050;55.558;-4.644;2022-12-11T08:43:59;101155.91;;;2.27;70.41
64853;BME280;56050;55.558;-4.644;2022-12-11T08:46:28;101162.34;;;2.26;70.24
64853;BME280;56050;55.558;-4.644;2022-12-11T08:48:55;101158.91;;;2.26;69.88
64853;BME280;56050;55.558;-4.644;2022-12-11T08:51:23;101151.56;;;2.23;70.03
64853;BME280;56050;55.558;-4.644;2022-12-11T08:53:49;101153.63;;;2.17;69.74
64853;BME280;56050;55.558;-4.644;2022-12-11T08:56:17;101159.13;;;2.12;69.97
64853;BME280;56050;55.558;-4.644;2022-12-11T08:58:43;101160.03;;;2.08;70.01
64853;BME280;56050;55.558;-4.644;2022-12-11T09:01:12;101164.13;;;2.05;70.01
64853;BME280;56050;55.558;-4.644;2022-12-11T09:03:39;101158.34;;;2.03;70.12
64853;BME280;56050;55.558;-4.644;2022-12-11T09:06:06;101159.78;;;2.01;69.99
64853;BME280;56050;55.558;-4.644;2022-12-11T09:08:32;101155.88;;;1.98;69.62
64853;BME280;56050;55.558;-4.644;2022-12-11T09:11:06;101164.03;;;1.93;69.49
64853;BME280;56050;55.558;-4.644;2022-12-11T09:13:32;101166.53;;;1.90;69.58
64853;BME280;56050;55.558;-4.644;2022-12-11T09:15:58;101161.84;;;1.87;69.86
64853;BME280;56050;55.558;-4.644;2022-12-11T09:18:24;101160.59;;;1.84;69.88
64853;BME280;56050;55.558;-4.644;2022-12-11T09:20:57;101162.47;;;1.84;70.28
64853;BME280;56050;55.558;-4.644;2022-12-11T09:23:23;101165.13;;;1.84;70.02
64853;BME280;56050;55.558;-4.644;2022-12-11T09:25:48;101164.34;;;1.83;70.00
64853;BME280;56050;55.558;-4.644;2022-12-11T09:28:14;101163.56;;;1.83;70.09
64853;BME280;56050;55.558;-4.644;2022-12-11T09:30:40;101165.44;;;1.82;69.93
64853;BME280;56050;55.558;-4.644;2022-12-11T09:33:06;101171.06;;;1.81;70.00
64853;BME280;56050;55.558;-4.644;2022-12-11T09:35:31;101157.31;;;1.78;70.14
64853;BME280;56050;55.558;-4.644;2022-12-11T09:37:56;101163.44;;;1.79;69.98
64853;BME280;56050;55.558;-4.644;2022-12-11T09:40:22;101158.13;;;1.79;70.33
64853;BME280;56050;55.558;-4.644;2022-12-11T09:42:59;101155.91;;;1.81;70.38
64853;BME280;56050;55.558;-4.644;2022-12-11T09:45:27;101159.19;;;1.87;70.38
64853;BME280;56050;55.558;-4.644;2022-12-11T09:47:54;101160.44;;;1.89;70.37
64853;BME280;56050;55.558;-4.644;2022-12-11T09:50:24;101165.09;;;1.92;70.29
64853;BME280;56050;55.558;-4.644;2022-12-11T09:53:14;101156.50;;;1.95;70.02
64853;BME280;56050;55.558;-4.644;2022-12-11T09:55:54;101163.06;;;1.98;70.24
64853;BME280;56050;55.558;-4.644;2022-12-11T09:58:38;101146.03;;;1.99;70.29
64853;BME280;56050;55.558;-4.644;2022-12-11T10:01:28;101151.47;;;2.02;70.31
64853;BME280;56050;55.558;-4.644;2022-12-11T10:04:17;101153.94;;;2.07;70.44
64853;BME280;56050;55.558;-4.644;2022-12-11T10:07:10;101154.88;;;2.11;70.31
64853;BME280;56050;55.558;-4.644;2022-12-11T10:12:16;101145.94;;;2.16;70.15
64853;BME280;56050;55.558;-4.644;2022-12-11T10:15:11;101141.41;;;2.16;69.95
64853;BME280;56050;55.558;-4.644;2022-12-11T10:17:39;101143.00;;;2.17;69.90
64853;BME280;56050;55.558;-4.644;2022-12-11T10:20:30;101139.53;;;2.17;69.90
64853;BME280;56050;55.558;-4.644;2022-12-11T10:22:58;101146.09;;;2.19;69.68
64853;BME280;56050;55.558;-4.644;2022-12-11T10:25:30;101134.69;;;2.19;69.75
64853;BME280;56050;55.558;-4.644;2022-12-11T10:27:56;101141.56;;;2.20;69.51
64853;BME280;56050;55.558;-4.644;2022-12-11T10:30:24;101133.25;;;2.21;69.79
64853;BME280;56050;55.558;-4.644;2022-12-11T10:36:07;101133.41;;;2.25;69.50
64853;BME280;56050;55.558;-4.644;2022-12-11T10:38:41;101132.63;;;2.24;69.66
64853;BME280;56050;55.558;-4.644;2022-12-11T10:41:16;101129.97;;;2.24;69.63
64853;BME280;56050;55.558;-4.644;2022-12-11T10:43:51;101128.88;;;2.25;69.61
64853;BME280;56050;55.558;-4.644;2022-12-11T10:46:19;101132.00;;;2.27;69.74
64853;BME280;56050;55.558;-4.644;2022-12-11T10:49:05;101124.16;;;2.31;69.88
64853;BME280;56050;55.558;-4.644;2022-12-11T10:54:15;101120.34;;;2.41;69.95
64853;BME280;56050;55.558;-4.644;2022-12-11T10:56:44;101123.16;;;2.44;69.84
64853;BME280;56050;55.558;-4.644;2022-12-11T10:59:38;101125.94;;;2.48;70.11
64853;BME280;56050;55.558;-4.644;2022-12-11T11:02:06;101128.41;;;2.53;69.98
64853;BME280;56050;55.558;-4.644;2022-12-11T11:04:40;101122.91;;;2.58;70.11
64853;BME280;56050;55.558;-4.644;2022-12-11T11:07:19;101124.28;;;2.64;70.24
64853;BME280;56050;55.558;-4.644;2022-12-11T11:09:44;101117.34;;;2.71;70.13
64853;BME280;56050;55.558;-4.644;2022-12-11T11:12:24;101121.06;;;2.79;70.16
64853;BME280;56050;55.558;-4.644;2022-12-11T11:15:09;101119.44;;;2.86;70.23
64853;BME280;56050;55.558;-4.644;2022-12-11T11:17:48;101118.59;;;2.94;70.36
64853;BME280;56050;55.558;-4.644;2022-12-11T11:20:17;101117.31;;;3.01;70.14
64853;BME280;56050;55.558;-4.644;2022-12-11T11:22:45;101115.97;;;3.07;69.98
64853;BME280;56050;55.558;-4.644;2022-12-11T11:25:31;101118.47;;;3.12;70.03
64853;BME280;56050;55.558;-4.644;2022-12-11T11:28:00;101109.50;;;3.16;69.59
64853;BME280;56050;55.558;-4.644;2022-12-11T11:30:38;101110.28;;;3.17;69.83
64853;BME280;56050;55.558;-4.644;2022-12-11T11:33:26;101106.97;;;3.20;69.83
64853;BME280;56050;55.558;-4.644;2022-12-11T11:36:02;101095.97;;;3.21;70.00
64853;BME280;56050;55.558;-4.644;2022-12-11T11:38:37;101105.19;;;3.24;70.13
64853;BME280;56050;55.558;-4.644;2022-12-11T11:43:58;101094.81;;;3.31;69.99
64853;BME280;56050;55.558;-4.644;2022-12-11T11:46:53;101097.91;;;3.33;69.74
64853;BME280;56050;55.558;-4.644;2022-12-11T11:55:13;101088.75;;;3.42;69.80
64853;BME280;56050;55.558;-4.644;2022-12-11T11:57:47;101083.88;;;3.44;69.95
64853;BME280;56050;55.558;-4.644;2022-12-11T12:00:20;101082.75;;;3.45;69.90
64853;BME280;56050;55.558;-4.644;2022-12-11T12:02:47;101089.63;;;3.46;69.77
64853;BME280;56050;55.558;-4.644;2022-12-11T12:05:16;101088.97;;;3.49;69.63
64853;BME280;56050;55.558;-4.644;2022-12-11T12:07:49;101080.34;;;3.52;69.62
64853;BME280;56050;55.558;-4.644;2022-12-11T12:10:42;101072.78;;;3.54;69.71
64853;BME280;56050;55.558;-4.644;2022-12-11T12:13:16;101068.38;;;3.59;69.43
64853;BME280;56050;55.558;-4.644;2022-12-11T12:15:55;101074.13;;;3.61;69.69
64853;BME280;56050;55.558;-4.644;2022-12-11T12:18:46;101063.13;;;3.62;69.57
64853;BME280;56050;55.558;-4.644;2022-12-11T12:26:37;101064.28;;;3.61;69.58
64853;BME280;56050;55.558;-4.644;2022-12-11T12:36:46;101054.97;;;3.67;69.83
64853;BME280;56050;55.558;-4.644;2022-12-11T12:42:26;101053.72;;;3.77;69.81
64853;BME280;56050;55.558;-4.644;2022-12-11T12:47:27;101056.97;;;3.82;69.59
64853;BME280;56050;55.558;-4.644;2022-12-11T12:49:55;101060.06;;;3.84;69.67
64853;BME280;56050;55.558;-4.644;2022-12-11T12:52:35;101059.75;;;3.86;69.83
64853;BME280;56050;55.558;-4.644;2022-12-11T12:55:25;101057.63;;;3.91;69.62
64853;BME280;56050;55.558;-4.644;2022-12-11T12:57:56;101063.84;;;3.95;69.61
64853;BME280;56050;55.558;-4.644;2022-12-11T13:03:14;101055.97;;;3.99;69.49
64853;BME280;56050;55.558;-4.644;2022-12-11T13:05:43;101058.31;;;4.00;69.58
64853;BME280;56050;55.558;-4.644;2022-12-11T13:08:11;101056.41;;;4.01;69.54
64853;BME280;56050;55.558;-4.644;2022-12-11T13:10:39;101054.97;;;4.03;69.70
64853;BME280;56050;55.558;-4.644;2022-12-11T13:13:31;101057.31;;;4.05;69.64
64853;BME280;56050;55.558;-4.644;2022-12-11T13:18:42;101057.06;;;4.10;69.48
64853;BME280;56050;55.558;-4.644;2022-12-11T13:23:51;101057.28;;;4.17;69.57
64853;BME280;56050;55.558;-4.644;2022-12-11T13:26:31;101050.84;;;4.18;69.49
64853;BME280;56050;55.558;-4.644;2022-12-11T13:28:57;101045.94;;;4.20;69.35
64853;BME280;56050;55.558;-4.644;2022-12-11T13:34:06;101051.75;;;4.22;69.41
64853;BME280;56050;55.558;-4.644;2022-12-11T13:36:34;101049.84;;;4.23;69.30
64853;BME280;56050;55.558;-4.644;2022-12-11T13:39:07;101038.75;;;4.21;69.37
64853;BME280;56050;55.558;-4.644;2022-12-11T13:41:49;101041.41;;;4.21;69.42
64853;BME280;56050;55.558;-4.644;2022-12-11T13:44:36;101041.75;;;4.19;69.42
64853;BME280;56050;55.558;-4.644;2022-12-11T13:47:05;101038.31;;;4.19;69.51
64853;BME280;56050;55.558;-4.644;2022-12-11T13:49:37;101039.41;;;4.18;69.58
64853;BME280;56050;55.558;-4.644;2022-12-11T13:52:05;101039.31;;;4.14;69.41
64853;BME280;56050;55.558;-4.644;2022-12-11T13:54:35;101030.84;;;4.12;69.36
64853;BME280;56050;55.558;-4.644;2022-12-11T13:59:37;101030.66;;;4.05;69.33
64853;BME280;56050;55.558;-4.644;2022-12-11T14:04:44;101033.88;;;3.98;69.53
64853;BME280;56050;55.558;-4.644;2022-12-11T14:07:11;101029.97;;;3.96;69.46